Country
Station

 

Weather  for  Fairbanks, Fairbanks International Airport  -  United States    United States

  
10 °C (50 °F)
    
 
 

Current METAR for Fairbanks, Fairbanks International Airport is :

PAFA 171053Z 00000KT 10SM FEW010 SCT041 BKN060 10/08 A2993 RMK AO2 SLP141 T01000083

 

This is a report for Fairbanks, Fairbanks International Airport - United States.
 
The report was made 11 minutes ago, at 10:53 UTC .
The wind was calm.
 
The temperature was 10 °C (50 °F), with a dew-point at 8 °C (46 °F).
The atmospheric pressure was 1014 hPa (29.93 inHg).
The relative humidity was 87.4%.
 
There were a few clouds at a height of 305 meters (1000 feet), scattered clouds at a height of 1250 meters (4100 feet) and broken clouds at a height of 1829 meters (6000 feet).
 
The overall visibility was 16.1 kilometers (10.0 miles).
 

 
 
 
 

Country :   A   B   C   D   E   F   G   H   I   J   K   L   M   N   O   P   Q   R   S   T   U   V   W   Y   Z

 

Site Info  |  Disclaimer  |  Credits  |  Privacy
Contact us  |  Add to favorites
© 2013-2018 METARs - All rights reserved